createdAt,value
2018-10-06T00:00:28.789Z,6.47
2018-10-06T00:02:57.135Z,6.37
2018-10-06T00:05:25.580Z,6.37
2018-10-06T00:07:53.966Z,5.90
2018-10-06T00:10:22.348Z,6.67
2018-10-06T00:12:50.778Z,6.50
2018-10-06T00:15:19.111Z,6.43
2018-10-06T00:17:47.542Z,6.47
2018-10-06T00:20:15.966Z,6.43
2018-10-06T00:22:44.451Z,5.93
2018-10-06T00:25:12.871Z,5.97
2018-10-06T00:27:41.266Z,6.83
2018-10-06T00:30:09.676Z,6.37
2018-10-06T00:32:38.074Z,6.53
2018-10-06T00:35:06.455Z,6.67
2018-10-06T00:37:34.889Z,5.50
2018-10-06T00:40:03.320Z,6.30
2018-10-06T00:42:31.745Z,6.40
2018-10-06T00:45:00.131Z,6.53
2018-10-06T00:47:28.549Z,7.17
2018-10-06T00:49:56.931Z,6.43
2018-10-06T00:52:25.337Z,6.77
2018-10-06T00:54:53.962Z,7.13
2018-10-06T00:57:22.357Z,6.30
2018-10-06T00:59:50.789Z,6.37
2018-10-06T01:02:19.151Z,7.23
2018-10-06T01:04:47.659Z,6.20
2018-10-06T01:07:16.088Z,6.30
2018-10-06T01:09:44.496Z,6.93
2018-10-06T01:12:12.846Z,6.80
2018-10-06T01:14:41.239Z,6.10
2018-10-06T01:17:09.619Z,6.50
2018-10-06T01:19:38.015Z,6.87
2018-10-06T01:22:06.719Z,6.33
2018-10-06T01:24:35.271Z,6.67
2018-10-06T01:27:03.739Z,6.73
2018-10-06T01:29:33.269Z,6.00
2018-10-06T01:32:03.367Z,6.27
2018-10-06T01:34:31.876Z,6.57
2018-10-06T01:37:00.538Z,6.07
2018-10-06T01:39:29.219Z,5.87
2018-10-06T01:41:57.641Z,5.60
2018-10-06T01:44:26.161Z,5.70
2018-10-06T01:46:54.600Z,6.17
2018-10-06T01:49:23.056Z,5.93
2018-10-06T01:51:51.616Z,5.80
2018-10-06T01:54:20.063Z,5.73
2018-10-06T01:56:48.543Z,6.20
2018-10-06T01:59:16.915Z,5.83
2018-10-06T02:01:45.321Z,5.60
2018-10-06T02:04:13.727Z,6.60
2018-10-06T02:06:42.211Z,6.07
2018-10-06T02:09:10.624Z,5.57
2018-10-06T02:11:39.052Z,6.20
2018-10-06T02:14:07.434Z,5.67
2018-10-06T02:16:35.827Z,5.90
2018-10-06T02:19:04.244Z,6.03
2018-10-06T02:21:32.644Z,5.97
2018-10-06T02:24:01.034Z,6.27
2018-10-06T02:26:29.404Z,6.10
2018-10-06T02:28:57.819Z,6.20
2018-10-06T02:31:26.230Z,5.73
2018-10-06T02:33:54.621Z,6.07
2018-10-06T02:36:22.998Z,6.30
2018-10-06T02:38:51.367Z,6.37
2018-10-06T02:41:19.827Z,6.73
2018-10-06T02:43:48.199Z,5.97
2018-10-06T02:46:16.589Z,6.03
2018-10-06T02:48:45.032Z,5.70
2018-10-06T02:51:13.379Z,6.50
2018-10-06T02:53:41.749Z,6.00
2018-10-06T02:56:10.153Z,5.60
2018-10-06T02:58:38.653Z,5.73
2018-10-06T03:01:08.123Z,6.50
2018-10-06T03:03:36.592Z,5.77
2018-10-06T03:06:04.955Z,6.03
2018-10-06T03:08:33.373Z,5.90
2018-10-06T03:11:01.714Z,6.20
2018-10-06T03:13:30.061Z,6.30
2018-10-06T03:15:58.447Z,5.90
2018-10-06T03:18:26.842Z,5.63
2018-10-06T03:20:55.180Z,5.50
2018-10-06T03:23:23.609Z,5.83
2018-10-06T03:25:52.035Z,6.17
2018-10-06T03:28:20.655Z,6.07
2018-10-06T03:30:49.033Z,6.20
2018-10-06T03:33:17.451Z,6.33
2018-10-06T03:35:45.875Z,6.17
2018-10-06T03:38:14.548Z,6.67
2018-10-06T03:40:42.959Z,6.10
2018-10-06T03:43:11.451Z,6.63
2018-10-06T03:45:39.857Z,6.03
2018-10-06T03:48:08.219Z,6.10
2018-10-06T03:50:36.583Z,6.50
2018-10-06T03:53:05.024Z,6.30
2018-10-06T03:55:33.379Z,6.17
2018-10-06T03:58:01.725Z,5.73
2018-10-06T04:00:30.103Z,5.93
2018-10-06T04:02:58.488Z,5.87
2018-10-06T04:05:26.872Z,6.33
2018-10-06T04:07:56.495Z,6.03
2018-10-06T04:10:24.844Z,6.57
2018-10-06T04:12:53.236Z,6.20
2018-10-06T04:15:21.612Z,6.23
2018-10-06T04:17:50.000Z,6.80
2018-10-06T04:20:18.376Z,6.77
2018-10-06T04:22:47.108Z,6.13
2018-10-06T04:25:15.434Z,5.57
2018-10-06T04:27:43.984Z,6.17
2018-10-06T04:30:12.468Z,6.20
2018-10-06T04:32:40.864Z,6.37
2018-10-06T04:35:09.258Z,5.77
2018-10-06T04:37:38.017Z,6.73
2018-10-06T04:40:06.430Z,6.63
2018-10-06T04:42:34.809Z,6.37
2018-10-06T04:45:03.180Z,6.10
2018-10-06T04:47:31.566Z,6.13
2018-10-06T04:49:59.934Z,6.30
2018-10-06T04:52:28.376Z,7.10
2018-10-06T04:54:56.792Z,6.17
2018-10-06T04:57:25.462Z,6.50
2018-10-06T04:59:54.056Z,6.60
2018-10-06T05:02:22.461Z,6.03
2018-10-06T05:04:50.819Z,6.57
2018-10-06T05:07:19.451Z,6.37
2018-10-06T05:09:47.821Z,6.77
2018-10-06T05:12:16.223Z,7.17
2018-10-06T05:14:44.932Z,6.83
2018-10-06T05:17:13.343Z,6.67
2018-10-06T05:19:41.757Z,6.43
2018-10-06T05:22:10.153Z,6.77
2018-10-06T05:24:38.545Z,6.40
2018-10-06T05:27:07.561Z,6.63
2018-10-06T05:29:36.133Z,6.77
2018-10-06T05:32:04.565Z,6.67
2018-10-06T05:34:32.941Z,6.33
2018-10-06T05:37:01.368Z,6.60
2018-10-06T05:39:29.970Z,6.83
2018-10-06T05:41:58.359Z,6.23
2018-10-06T05:44:26.833Z,6.83
2018-10-06T05:46:55.303Z,6.67
2018-10-06T05:49:23.709Z,6.80
2018-10-06T05:51:52.088Z,7.27
2018-10-06T05:54:20.751Z,6.50
2018-10-06T05:56:49.348Z,7.07
2018-10-06T05:59:18.241Z,6.77
2018-10-06T06:01:46.616Z,6.20
2018-10-06T06:04:15.001Z,6.77
2018-10-06T06:06:43.392Z,6.87
2018-10-06T06:09:11.786Z,6.97
2018-10-06T06:11:40.199Z,6.93
2018-10-06T06:14:08.652Z,7.03
2018-10-06T06:16:37.126Z,7.03
2018-10-06T06:19:05.611Z,7.47
2018-10-06T06:21:34.201Z,6.47
2018-10-06T06:24:02.744Z,6.60
2018-10-06T06:26:31.364Z,6.33
2018-10-06T06:29:00.524Z,6.90
2018-10-06T06:31:28.968Z,6.47
2018-10-06T06:33:57.331Z,7.23
2018-10-06T06:36:26.196Z,6.40
2018-10-06T06:38:54.654Z,6.60
2018-10-06T06:41:23.032Z,6.23
2018-10-06T06:43:51.528Z,6.30
2018-10-06T06:46:19.898Z,6.37
2018-10-06T06:48:48.643Z,6.63
2018-10-06T06:51:17.061Z,6.20
2018-10-06T06:53:45.457Z,7.50
2018-10-06T06:56:14.270Z,6.30
2018-10-06T06:58:42.725Z,6.77
2018-10-06T07:04:01.365Z,6.63
2018-10-06T07:06:29.778Z,6.40
2018-10-06T07:08:58.166Z,6.90
2018-10-06T07:11:26.572Z,6.53
2018-10-06T07:13:54.939Z,6.70
2018-10-06T07:16:23.345Z,7.00
2018-10-06T07:18:51.758Z,6.67
2018-10-06T07:21:20.175Z,7.07
2018-10-06T07:23:48.617Z,6.70
2018-10-06T07:26:16.998Z,7.03
2018-10-06T07:28:45.385Z,6.63
2018-10-06T07:31:13.841Z,6.93
2018-10-06T07:33:42.314Z,6.47
2018-10-06T07:36:10.819Z,6.10
2018-10-06T07:38:39.232Z,6.40
2018-10-06T07:41:07.624Z,6.33
2018-10-06T07:43:36.121Z,7.13
2018-10-06T07:46:04.548Z,7.07
2018-10-06T07:48:32.924Z,6.70
2018-10-06T07:51:01.322Z,6.30
2018-10-06T07:53:29.720Z,6.10
2018-10-06T07:55:58.441Z,6.10
2018-10-06T07:58:26.816Z,6.10
2018-10-06T08:00:55.220Z,6.17
2018-10-06T08:03:23.612Z,6.23
2018-10-06T08:05:52.294Z,6.03
2018-10-06T08:08:20.695Z,6.03
2018-10-06T08:10:49.153Z,5.87
2018-10-06T08:13:17.574Z,6.67
2018-10-06T08:15:45.959Z,6.07
2018-10-06T08:18:14.330Z,6.20
2018-10-06T08:20:42.737Z,6.60
2018-10-06T08:23:11.124Z,6.60
2018-10-06T08:25:39.976Z,6.23
2018-10-06T08:28:08.396Z,7.10
2018-10-06T08:30:36.800Z,6.63
2018-10-06T08:33:05.439Z,7.10
2018-10-06T08:35:33.879Z,6.80
2018-10-06T08:38:02.535Z,6.80
2018-10-06T08:40:31.200Z,6.63
2018-10-06T08:42:59.566Z,6.63
2018-10-06T08:45:28.096Z,7.60
2018-10-06T08:47:56.488Z,7.17
2018-10-06T08:50:24.876Z,7.10
2018-10-06T08:52:53.292Z,7.63
2018-10-06T08:55:21.706Z,7.03
2018-10-06T08:57:50.154Z,7.27
2018-10-06T09:00:18.562Z,7.00
2018-10-06T09:02:46.938Z,6.73
2018-10-06T09:05:15.297Z,6.60
2018-10-06T09:07:43.942Z,7.27
2018-10-06T09:10:13.023Z,7.27
2018-10-06T09:12:41.667Z,6.97
2018-10-06T09:15:10.148Z,7.57
2018-10-06T09:17:38.746Z,7.77
2018-10-06T09:20:07.201Z,7.50
2018-10-06T09:22:35.589Z,7.10
2018-10-06T09:25:04.010Z,6.83
2018-10-06T09:27:32.507Z,6.77
2018-10-06T09:30:00.870Z,6.47
2018-10-06T09:32:29.384Z,7.30
2018-10-06T09:34:58.000Z,7.53
2018-10-06T09:37:26.595Z,7.60
2018-10-06T09:39:54.975Z,8.20
2018-10-06T09:42:23.468Z,7.67
2018-10-06T09:44:51.793Z,8.03
2018-10-06T09:47:20.207Z,8.63
2018-10-06T09:49:48.588Z,7.93
2018-10-06T09:52:17.040Z,8.23
2018-10-06T09:54:45.458Z,7.93
2018-10-06T09:57:14.046Z,7.43
2018-10-06T09:59:42.481Z,7.80
2018-10-06T10:02:15.173Z,8.20
2018-10-06T10:04:43.583Z,8.10
2018-10-06T10:07:12.030Z,8.37
2018-10-06T10:09:40.457Z,7.67
2018-10-06T10:12:08.872Z,7.47
2018-10-06T10:14:37.310Z,8.00
2018-10-06T10:17:06.134Z,8.10
2018-10-06T10:19:34.438Z,7.07
2018-10-06T10:22:02.960Z,6.90
2018-10-06T10:24:31.373Z,6.43
2018-10-06T10:26:59.788Z,6.83
2018-10-06T10:29:28.183Z,7.23
2018-10-06T10:31:56.708Z,7.20
2018-10-06T10:34:25.141Z,6.83
2018-10-06T10:36:53.482Z,6.47
2018-10-06T10:39:21.946Z,7.33
2018-10-06T10:41:50.329Z,6.57
2018-10-06T10:44:18.778Z,6.43
2018-10-06T10:46:47.595Z,6.53
2018-10-06T10:49:16.063Z,6.07
2018-10-06T10:51:44.535Z,6.17
2018-10-06T10:54:13.051Z,5.67
2018-10-06T10:56:41.421Z,6.37
2018-10-06T10:59:09.858Z,5.60
2018-10-06T11:01:38.571Z,5.83
2018-10-06T11:04:07.005Z,5.73
2018-10-06T11:06:35.403Z,5.60
2018-10-06T11:09:05.167Z,5.63
2018-10-06T11:11:33.573Z,4.83
2018-10-06T11:14:02.013Z,4.80
2018-10-06T11:16:30.493Z,26.10
2018-10-06T11:18:58.925Z,5.33
2018-10-06T11:21:28.007Z,4.72
2018-10-06T11:23:56.398Z,4.78
2018-10-06T11:26:25.373Z,4.42
2018-10-06T11:28:53.813Z,4.60
2018-10-06T11:31:22.251Z,4.75
2018-10-06T11:33:50.655Z,4.58
2018-10-06T11:36:19.087Z,4.90
2018-10-06T11:38:47.466Z,4.03
2018-10-06T11:41:15.930Z,4.00
2018-10-06T11:43:44.291Z,4.10
2018-10-06T11:46:12.685Z,4.30
2018-10-06T11:48:41.163Z,4.73
2018-10-06T11:51:09.711Z,4.53
2018-10-06T11:53:38.119Z,4.20
2018-10-06T11:56:06.621Z,4.40
2018-10-06T11:58:35.057Z,4.10
2018-10-06T12:01:03.538Z,3.97
2018-10-06T12:03:32.563Z,4.17
2018-10-06T12:06:01.003Z,4.10
2018-10-06T12:08:29.441Z,3.93
2018-10-06T12:10:57.888Z,4.20
2018-10-06T12:13:26.661Z,4.43
2018-10-06T12:15:55.152Z,11.87
2018-10-06T12:18:23.560Z,4.50
2018-10-06T12:20:51.984Z,3.90
2018-10-06T12:23:20.398Z,3.53
2018-10-06T12:25:48.780Z,4.10
2018-10-06T12:28:17.192Z,4.00
2018-10-06T12:30:45.636Z,3.50
2018-10-06T12:33:14.056Z,3.50
2018-10-06T12:35:42.507Z,3.70
2018-10-06T12:38:10.873Z,3.90
2018-10-06T12:40:39.273Z,4.13
2018-10-06T12:43:07.806Z,4.10
2018-10-06T12:45:36.242Z,3.73
2018-10-06T12:48:04.763Z,3.90
2018-10-06T12:50:33.151Z,3.77
2018-10-06T12:53:01.565Z,3.80
2018-10-06T12:55:29.970Z,4.03
2018-10-06T12:57:58.305Z,3.93
2018-10-06T13:00:26.772Z,3.63
2018-10-06T13:02:55.125Z,4.30
2018-10-06T13:05:23.514Z,3.60
2018-10-06T13:07:51.920Z,3.70
2018-10-06T13:10:20.317Z,3.80
2018-10-06T13:12:48.695Z,3.67
2018-10-06T13:15:17.103Z,3.53
2018-10-06T13:17:45.549Z,3.40
2018-10-06T13:20:13.953Z,3.80
2018-10-06T13:22:42.456Z,3.50
2018-10-06T13:25:10.931Z,3.77
2018-10-06T13:27:39.375Z,3.20
2018-10-06T13:30:08.179Z,3.70
2018-10-06T13:32:36.610Z,3.37
2018-10-06T13:35:05.060Z,3.70
2018-10-06T13:37:33.417Z,3.20
2018-10-06T13:40:01.818Z,3.10
2018-10-06T13:42:30.220Z,3.67
2018-10-06T13:44:58.591Z,3.10
2018-10-06T13:47:26.945Z,3.43
2018-10-06T13:49:55.349Z,3.70
2018-10-06T13:52:24.009Z,3.53
2018-10-06T13:54:52.412Z,3.00
2018-10-06T13:57:20.876Z,3.20
2018-10-06T13:59:49.300Z,4.30
2018-10-06T14:02:18.268Z,2.90
2018-10-06T14:04:46.704Z,2.70
2018-10-06T14:07:15.364Z,3.10
2018-10-06T14:09:44.277Z,2.90
2018-10-06T14:12:12.694Z,2.93
2018-10-06T14:14:41.031Z,3.07
2018-10-06T14:17:09.446Z,3.00
2018-10-06T14:19:37.900Z,3.00
2018-10-06T14:22:06.337Z,3.13
2018-10-06T14:24:35.252Z,3.03
2018-10-06T14:27:03.680Z,3.20
2018-10-06T14:29:32.081Z,2.87
2018-10-06T14:32:00.505Z,3.00
2018-10-06T14:34:28.929Z,2.77
2018-10-06T14:36:57.416Z,2.60
2018-10-06T14:39:26.234Z,2.30
2018-10-06T14:41:54.678Z,2.10
2018-10-06T14:44:23.208Z,2.63
2018-10-06T14:46:51.602Z,2.73
2018-10-06T14:49:20.029Z,2.43
2018-10-06T14:51:48.423Z,2.20
2018-10-06T14:54:16.811Z,2.23
2018-10-06T14:56:45.549Z,2.23
2018-10-06T14:59:14.262Z,2.20
2018-10-06T15:01:43.074Z,2.10
2018-10-06T15:04:11.459Z,2.13
2018-10-06T15:06:40.111Z,2.30
2018-10-06T15:09:09.811Z,2.50
2018-10-06T15:11:38.295Z,2.30
2018-10-06T15:14:06.976Z,2.97
2018-10-06T15:16:35.559Z,2.57
2018-10-06T15:19:04.109Z,2.53
2018-10-06T15:21:32.529Z,2.73
2018-10-06T15:24:00.985Z,2.97
2018-10-06T15:26:29.389Z,2.40
2018-10-06T15:28:58.389Z,2.90
2018-10-06T15:31:26.773Z,2.83
2018-10-06T15:33:55.260Z,2.87
2018-10-06T15:36:23.632Z,3.10
2018-10-06T15:38:52.028Z,4.10
2018-10-06T15:41:20.378Z,3.27
2018-10-06T15:43:48.778Z,3.80
2018-10-06T15:46:17.247Z,4.20
2018-10-06T15:48:45.667Z,4.67
2018-10-06T15:51:14.036Z,4.77
2018-10-06T15:53:42.501Z,8.53
2018-10-06T15:56:10.930Z,5.07
2018-10-06T15:58:39.351Z,4.87
2018-10-06T16:01:08.759Z,4.47
2018-10-06T16:06:27.619Z,4.10
2018-10-06T16:08:56.058Z,3.90
2018-10-06T16:11:24.503Z,3.37
2018-10-06T16:13:52.910Z,3.37
2018-10-06T16:16:21.289Z,3.70
2018-10-06T16:18:49.709Z,3.77
2018-10-06T16:21:18.069Z,3.73
2018-10-06T16:23:46.475Z,3.97
2018-10-06T16:26:14.871Z,3.80
2018-10-06T16:28:43.356Z,4.40
2018-10-06T16:31:11.724Z,4.80
2018-10-06T16:33:40.776Z,4.90
2018-10-06T16:36:09.163Z,4.77
2018-10-06T16:38:37.731Z,4.90
2018-10-06T16:41:06.772Z,4.60
2018-10-06T16:43:35.148Z,6.40
2018-10-06T16:46:03.513Z,6.27
2018-10-06T16:48:32.163Z,7.20
2018-10-06T16:51:00.566Z,7.07
2018-10-06T16:53:28.944Z,8.00
2018-10-06T16:55:57.632Z,6.00
2018-10-06T16:58:26.038Z,7.00
2018-10-06T17:00:54.960Z,5.57
2018-10-06T17:03:23.440Z,5.13
2018-10-06T17:05:51.860Z,5.80
2018-10-06T17:08:20.498Z,5.17
2018-10-06T17:10:48.936Z,9.47
2018-10-06T17:13:17.408Z,8.00
2018-10-06T17:15:46.691Z,7.10
2018-10-06T17:18:15.085Z,8.03
2018-10-06T17:20:43.504Z,8.33
2018-10-06T17:23:11.892Z,8.00
2018-10-06T17:25:40.328Z,9.43
2018-10-06T17:28:09.272Z,9.37
2018-10-06T17:30:37.711Z,9.03
2018-10-06T17:33:06.121Z,8.97
2018-10-06T17:35:34.668Z,7.13
2018-10-06T17:38:03.165Z,6.83
2018-10-06T17:40:31.683Z,6.63
2018-10-06T17:43:00.190Z,6.77
2018-10-06T17:45:28.562Z,6.87
2018-10-06T17:47:57.393Z,7.60
2018-10-06T17:50:25.871Z,6.40
2018-10-06T17:52:54.397Z,7.03
2018-10-06T17:55:23.321Z,7.53
2018-10-06T17:57:51.690Z,7.70
2018-10-06T18:00:20.067Z,7.20
2018-10-06T18:02:48.511Z,6.23
2018-10-06T18:05:16.910Z,6.57
2018-10-06T18:07:45.384Z,7.30
2018-10-06T18:10:13.937Z,6.70
2018-10-06T18:12:42.343Z,6.93
2018-10-06T18:15:10.850Z,7.03
2018-10-06T18:17:39.335Z,6.63
2018-10-06T18:20:07.761Z,6.97
2018-10-06T18:22:36.087Z,7.73
2018-10-06T18:25:04.538Z,7.70
2018-10-06T18:27:33.412Z,7.50
2018-10-06T18:30:01.834Z,6.77
2018-10-06T18:32:30.730Z,7.17
2018-10-06T18:34:59.272Z,6.93
2018-10-06T18:37:27.760Z,7.20
2018-10-06T18:39:56.206Z,7.23
2018-10-06T18:42:24.783Z,8.27
2018-10-06T18:44:53.210Z,9.10
2018-10-06T18:47:21.756Z,9.20
2018-10-06T18:49:50.247Z,9.67
2018-10-06T18:52:18.755Z,12.07
2018-10-06T18:54:47.262Z,10.57
2018-10-06T18:57:16.196Z,9.70
2018-10-06T18:59:44.895Z,9.90
2018-10-06T19:02:14.361Z,10.03
2018-10-06T19:04:43.116Z,9.13
2018-10-06T19:07:11.835Z,8.90
2018-10-06T19:09:40.664Z,9.37
2018-10-06T19:12:09.486Z,8.93
2018-10-06T19:14:38.237Z,8.03
2018-10-06T19:17:07.254Z,8.33
2018-10-06T19:19:35.992Z,7.43
2018-10-06T19:22:04.830Z,7.57
2018-10-06T19:24:33.638Z,7.20
2018-10-06T19:27:02.410Z,6.87
2018-10-06T19:29:31.186Z,7.50
2018-10-06T19:31:59.984Z,6.63
2018-10-06T19:34:28.792Z,6.60
2018-10-06T19:36:57.682Z,6.17
2018-10-06T19:39:26.422Z,6.40
2018-10-06T19:41:55.098Z,5.60
2018-10-06T19:44:23.824Z,5.27
2018-10-06T19:46:52.664Z,5.10
2018-10-06T19:49:21.945Z,5.20
2018-10-06T19:51:50.701Z,4.93
2018-10-06T19:54:19.461Z,5.10
2018-10-06T19:56:48.256Z,4.67
2018-10-06T19:59:16.916Z,4.80
2018-10-06T20:01:46.168Z,4.40
2018-10-06T20:04:14.962Z,4.33
2018-10-06T20:06:43.722Z,4.03
2018-10-06T20:09:12.769Z,4.07
2018-10-06T20:11:41.506Z,4.70
2018-10-06T20:14:10.243Z,4.60
2018-10-06T20:16:38.963Z,4.93
2018-10-06T20:19:08.018Z,4.20
2018-10-06T20:21:36.781Z,4.80
2018-10-06T20:24:05.522Z,4.97
2018-10-06T20:26:33.999Z,4.90
2018-10-06T20:29:02.488Z,4.90
2018-10-06T20:31:30.878Z,4.37
2018-10-06T20:33:59.285Z,4.90
2018-10-06T20:36:27.702Z,4.60
2018-10-06T20:38:56.236Z,4.97
2018-10-06T20:41:24.797Z,4.90
2018-10-06T20:43:53.123Z,5.30
2018-10-06T20:46:22.036Z,4.67
2018-10-06T20:48:50.565Z,5.53
2018-10-06T20:51:19.294Z,5.87
2018-10-06T20:53:47.724Z,5.60
2018-10-06T20:56:16.090Z,5.80
2018-10-06T20:58:44.792Z,6.00
2018-10-06T21:01:15.102Z,5.70
2018-10-06T21:03:43.545Z,6.20
2018-10-06T21:06:11.986Z,6.00
2018-10-06T21:08:40.408Z,5.80
2018-10-06T21:11:10.932Z,6.43
2018-10-06T21:13:39.421Z,5.33
2018-10-06T21:16:07.936Z,5.40
2018-10-06T21:18:36.449Z,5.60
2018-10-06T21:21:05.060Z,5.40
2018-10-06T21:23:33.440Z,5.77
2018-10-06T21:26:01.867Z,6.50
2018-10-06T21:28:30.284Z,6.10
2018-10-06T21:30:58.686Z,5.90
2018-10-06T21:33:27.163Z,6.20
2018-10-06T21:35:55.538Z,6.20
2018-10-06T21:38:23.969Z,6.03
2018-10-06T21:40:52.365Z,5.97
2018-10-06T21:43:20.759Z,6.67
2018-10-06T21:45:49.215Z,6.37
2018-10-06T21:48:17.920Z,7.00
2018-10-06T21:50:46.391Z,6.53
2018-10-06T21:53:14.761Z,5.97
2018-10-06T21:55:43.195Z,6.37
2018-10-06T21:58:11.604Z,6.40
2018-10-06T22:00:40.003Z,6.13
2018-10-06T22:03:08.803Z,6.50
2018-10-06T22:05:37.159Z,6.37
2018-10-06T22:08:05.493Z,6.47
2018-10-06T22:10:33.897Z,6.83
2018-10-06T22:13:08.859Z,6.20
2018-10-06T22:15:47.806Z,6.63
2018-10-06T22:18:27.337Z,7.00
2018-10-06T22:21:04.725Z,6.90
2018-10-06T22:23:42.446Z,6.77
2018-10-06T22:26:11.609Z,6.37
2018-10-06T22:28:40.733Z,6.57
2018-10-06T22:31:09.072Z,6.27
2018-10-06T22:33:37.842Z,5.90
2018-10-06T22:36:06.404Z,6.60
2018-10-06T22:38:34.742Z,6.53
2018-10-06T22:41:03.178Z,6.47
2018-10-06T22:43:31.663Z,6.30
2018-10-06T22:46:00.610Z,6.07
2018-10-06T22:48:28.982Z,6.20
2018-10-06T22:50:57.372Z,6.60
2018-10-06T22:53:25.789Z,6.60
2018-10-06T22:55:54.156Z,6.20
2018-10-06T22:58:22.494Z,6.27
2018-10-06T23:00:50.880Z,6.13
2018-10-06T23:03:19.293Z,6.17
2018-10-06T23:05:47.588Z,7.17
2018-10-06T23:08:16.258Z,7.40
2018-10-06T23:10:44.704Z,6.93
2018-10-06T23:13:13.128Z,6.77
2018-10-06T23:15:42.332Z,7.00
2018-10-06T23:18:10.810Z,6.73
2018-10-06T23:20:39.193Z,7.07
2018-10-06T23:23:07.570Z,7.93
2018-10-06T23:25:35.947Z,7.10
2018-10-06T23:28:05.108Z,7.57
2018-10-06T23:30:33.532Z,7.20
2018-10-06T23:33:01.933Z,7.70
2018-10-06T23:35:30.377Z,7.70
2018-10-06T23:37:58.875Z,7.73
2018-10-06T23:40:27.298Z,7.47
2018-10-06T23:42:55.711Z,8.37
2018-10-06T23:45:24.121Z,7.90
2018-10-06T23:47:52.815Z,7.60
2018-10-06T23:50:21.227Z,8.17
2018-10-06T23:52:49.640Z,7.70
2018-10-06T23:55:18.416Z,7.97
2018-10-06T23:57:46.857Z,8.30
